createdAt,value
2022-10-16T00:01:28.207Z,192.73
2022-10-16T00:03:58.236Z,173.63
2022-10-16T00:06:27.384Z,188.47
2022-10-16T00:08:55.587Z,188.73
2022-10-16T00:11:26.088Z,185.40
2022-10-16T00:13:58.094Z,202.17
2022-10-16T00:16:26.736Z,181.37
2022-10-16T00:18:55.176Z,160.60
2022-10-16T00:21:25.380Z,194.23
2022-10-16T00:23:54.847Z,183.17
2022-10-16T00:26:23.385Z,185.57
2022-10-16T00:28:52.916Z,176.33
2022-10-16T00:31:24.323Z,188.77
2022-10-16T00:33:52.856Z,167.17
2022-10-16T00:36:24.608Z,161.10
2022-10-16T00:38:55.628Z,172.00
2022-10-16T00:41:26.668Z,155.93
2022-10-16T00:43:56.736Z,159.83
2022-10-16T00:46:29.564Z,170.53
2022-10-16T00:49:02.573Z,177.17
2022-10-16T00:51:34.659Z,164.73
2022-10-16T00:54:04.271Z,173.03
2022-10-16T00:56:34.915Z,167.80
2022-10-16T00:59:07.045Z,202.80
2022-10-16T01:01:36.873Z,166.03
2022-10-16T01:04:05.412Z,178.47
2022-10-16T01:06:43.366Z,139.50
2022-10-16T01:09:20.686Z,140.83
2022-10-16T01:12:00.526Z,137.30
2022-10-16T01:14:42.425Z,137.57
2022-10-16T01:17:17.236Z,126.20
2022-10-16T01:20:03.322Z,131.37
2022-10-16T01:22:42.212Z,134.93
2022-10-16T01:25:18.617Z,128.33
2022-10-16T01:27:49.907Z,125.50
2022-10-16T01:30:23.139Z,126.57
2022-10-16T01:32:54.885Z,125.60
2022-10-16T01:35:27.378Z,139.73
2022-10-16T01:38:02.512Z,147.40
2022-10-16T01:40:33.658Z,151.77
2022-10-16T01:43:07.684Z,158.67
2022-10-16T01:45:38.162Z,173.60
2022-10-16T01:48:10.526Z,167.03
2022-10-16T01:50:43.595Z,160.93
2022-10-16T01:53:15.484Z,186.70
2022-10-16T01:55:49.988Z,171.33
2022-10-16T01:58:19.442Z,166.77
2022-10-16T02:00:49.367Z,192.33
2022-10-16T02:03:20.865Z,147.43
2022-10-16T02:05:53.023Z,165.80
2022-10-16T02:08:21.450Z,189.47
2022-10-16T02:10:49.545Z,170.70
2022-10-16T02:13:25.494Z,157.20
2022-10-16T02:15:53.615Z,161.80
2022-10-16T02:18:23.423Z,169.27
2022-10-16T02:20:57.468Z,172.90
2022-10-16T02:23:35.073Z,171.97
2022-10-16T02:26:06.367Z,151.43
2022-10-16T02:28:44.142Z,175.10
2022-10-16T02:31:15.587Z,157.50
2022-10-16T02:33:46.769Z,165.13
2022-10-16T02:36:15.370Z,164.73
2022-10-16T02:38:43.792Z,154.83
2022-10-16T02:41:12.002Z,157.93
2022-10-16T02:43:41.477Z,166.37
2022-10-16T02:46:09.848Z,157.20
2022-10-16T02:48:37.974Z,158.93
2022-10-16T02:51:06.830Z,147.10
2022-10-16T02:53:34.900Z,160.17
2022-10-16T02:56:02.971Z,150.40
2022-10-16T02:58:31.152Z,178.40
2022-10-16T03:01:00.774Z,150.33
2022-10-16T03:03:28.997Z,147.07
2022-10-16T03:05:59.746Z,121.73
2022-10-16T03:08:27.939Z,138.33
2022-10-16T03:10:56.147Z,116.10
2022-10-16T03:13:24.388Z,134.67
2022-10-16T03:15:52.620Z,116.50
2022-10-16T03:18:22.027Z,140.30
2022-10-16T03:20:50.244Z,133.80
2022-10-16T03:23:18.488Z,122.27
2022-10-16T03:25:48.353Z,116.77
2022-10-16T03:28:16.658Z,125.90
2022-10-16T03:30:45.132Z,152.50
2022-10-16T03:33:13.448Z,141.13
2022-10-16T03:35:42.888Z,139.67
2022-10-16T03:38:11.021Z,155.13
2022-10-16T03:40:39.138Z,173.73
2022-10-16T03:43:07.468Z,151.50
2022-10-16T03:45:35.673Z,138.87
2022-10-16T03:48:04.349Z,149.03
2022-10-16T03:50:32.496Z,152.23
2022-10-16T03:53:02.155Z,131.70
2022-10-16T03:55:30.483Z,153.70
2022-10-16T03:57:58.639Z,140.60
2022-10-16T04:00:26.892Z,122.03
2022-10-16T04:02:55.167Z,132.90
2022-10-16T04:05:23.315Z,141.63
2022-10-16T04:07:51.337Z,131.20
2022-10-16T04:10:21.034Z,122.60
2022-10-16T04:12:49.103Z,147.83
2022-10-16T04:15:17.373Z,124.03
2022-10-16T04:17:45.467Z,115.60
2022-10-16T04:20:13.606Z,116.10
2022-10-16T04:22:41.821Z,112.13
2022-10-16T04:25:10.814Z,122.30
2022-10-16T04:27:43.568Z,115.10
2022-10-16T04:30:14.520Z,115.90
2022-10-16T04:32:43.160Z,133.37
2022-10-16T04:35:11.330Z,134.73
2022-10-16T04:37:39.516Z,132.70
2022-10-16T04:40:08.624Z,136.03
2022-10-16T04:42:37.601Z,147.60
2022-10-16T04:45:13.396Z,154.90
2022-10-16T04:47:44.676Z,183.83
2022-10-16T04:50:13.043Z,157.47
2022-10-16T04:52:41.193Z,144.37
2022-10-16T04:55:09.987Z,133.77
2022-10-16T04:57:38.172Z,131.67
2022-10-16T05:00:09.017Z,134.83
2022-10-16T05:02:37.419Z,141.37
2022-10-16T05:05:06.523Z,128.13
2022-10-16T05:07:34.732Z,129.17
2022-10-16T05:10:02.852Z,120.00
2022-10-16T05:12:30.996Z,118.50
2022-10-16T05:14:59.698Z,135.33
2022-10-16T05:17:29.625Z,119.73
2022-10-16T05:19:57.937Z,135.70
2022-10-16T05:22:26.109Z,131.07
2022-10-16T05:24:54.218Z,123.23
2022-10-16T05:27:25.118Z,126.67
2022-10-16T05:29:53.472Z,124.20
2022-10-16T05:32:21.640Z,128.70
2022-10-16T05:34:52.705Z,121.27
2022-10-16T05:37:20.833Z,113.37
2022-10-16T05:39:48.925Z,131.53
2022-10-16T05:42:17.046Z,116.30
2022-10-16T05:44:45.166Z,129.33
2022-10-16T05:47:21.881Z,117.50
2022-10-16T05:49:50.312Z,126.30
2022-10-16T05:52:18.549Z,116.93
2022-10-16T05:54:46.777Z,124.40
2022-10-16T05:57:14.935Z,116.50
2022-10-16T05:59:43.982Z,120.67
2022-10-16T06:02:14.576Z,110.13
2022-10-16T06:04:44.073Z,113.47
2022-10-16T06:07:12.231Z,125.57
2022-10-16T06:09:40.441Z,121.43
2022-10-16T06:12:08.648Z,120.27
2022-10-16T06:14:36.894Z,119.13
2022-10-16T06:17:05.082Z,117.63
2022-10-16T06:19:33.206Z,134.17
2022-10-16T06:22:03.639Z,118.47
2022-10-16T06:24:31.782Z,115.97
2022-10-16T06:26:59.952Z,119.70
2022-10-16T06:29:28.368Z,125.97
2022-10-16T06:31:56.535Z,122.90
2022-10-16T06:34:24.893Z,123.13
2022-10-16T06:36:53.006Z,122.13
2022-10-16T06:39:22.531Z,141.10
2022-10-16T06:41:50.785Z,138.43
2022-10-16T06:44:19.019Z,126.37
2022-10-16T06:46:47.163Z,125.57
2022-10-16T06:49:22.107Z,126.10
2022-10-16T06:51:50.572Z,130.37
2022-10-16T06:54:19.063Z,124.87
2022-10-16T06:56:48.802Z,143.87
2022-10-16T06:59:17.117Z,137.00
2022-10-16T07:01:45.346Z,166.40
2022-10-16T07:04:13.688Z,218.60
2022-10-16T07:06:41.842Z,305.57
2022-10-16T07:09:12.607Z,389.60
2022-10-16T07:11:42.383Z,336.87
2022-10-16T07:14:18.590Z,335.70
2022-10-16T07:16:46.891Z,296.57
2022-10-16T07:19:17.890Z,170.67
2022-10-16T07:21:46.712Z,187.70
2022-10-16T07:24:17.140Z,367.87
2022-10-16T07:26:47.095Z,868.57
2022-10-16T07:29:18.237Z,927.97
2022-10-16T07:31:47.183Z,938.13
2022-10-16T07:34:17.695Z,1125.03
2022-10-16T07:36:46.977Z,1425.70
2022-10-16T07:39:15.284Z,1757.37
2022-10-16T07:41:43.554Z,1041.57
2022-10-16T07:44:11.710Z,1887.73
2022-10-16T07:46:41.280Z,1744.00
2022-10-16T07:49:10.772Z,1920.20
2022-10-16T07:51:40.222Z,1814.30
2022-10-16T07:54:09.753Z,1873.60
2022-10-16T07:56:39.981Z,2008.53
2022-10-16T07:59:11.218Z,1781.03
2022-10-16T08:01:40.938Z,1633.90
2022-10-16T08:04:09.151Z,1506.97
2022-10-16T08:06:38.620Z,2266.67
2022-10-16T08:09:07.457Z,2266.67
2022-10-16T08:11:35.771Z,2266.67
2022-10-16T08:14:04.095Z,2266.67
2022-10-16T08:16:32.269Z,2266.67
2022-10-16T08:19:01.802Z,2266.67
2022-10-16T08:21:30.031Z,2266.67
2022-10-16T08:23:58.748Z,2266.67
2022-10-16T08:26:28.354Z,2266.67
2022-10-16T08:28:57.472Z,2266.67
2022-10-16T08:31:27.184Z,2266.67
2022-10-16T08:33:55.661Z,2266.67
2022-10-16T08:36:25.333Z,2266.67
2022-10-16T08:38:55.310Z,2266.67
2022-10-16T08:42:06.669Z,2266.67
2022-10-16T08:45:03.957Z,2266.67
2022-10-16T08:47:45.229Z,2266.67
2022-10-16T08:50:16.235Z,2266.67
2022-10-16T08:52:46.990Z,2266.67
2022-10-16T08:55:30.519Z,2266.67
2022-10-16T08:57:59.118Z,2266.67
2022-10-16T09:00:29.505Z,2266.67
2022-10-16T09:03:06.556Z,2266.67
2022-10-16T09:05:56.671Z,2266.67
2022-10-16T09:08:34.961Z,2266.67
2022-10-16T09:11:10.678Z,2266.67
2022-10-16T09:13:48.341Z,2266.67
2022-10-16T09:16:23.297Z,2266.67
2022-10-16T09:18:59.077Z,2266.67
2022-10-16T09:21:30.844Z,2266.67
2022-10-16T09:24:06.911Z,2266.67
2022-10-16T09:26:35.116Z,2266.67
2022-10-16T09:29:04.701Z,2266.67
2022-10-16T09:31:33.137Z,2266.67
2022-10-16T09:34:05.293Z,2266.67
2022-10-16T09:36:43.559Z,2266.67
2022-10-16T09:39:13.865Z,2266.67
2022-10-16T09:41:45.685Z,2266.67
2022-10-16T09:44:24.598Z,2266.67
2022-10-16T09:47:03.400Z,2266.67
2022-10-16T09:49:31.538Z,2266.67
2022-10-16T09:52:07.920Z,2266.67
2022-10-16T09:54:37.741Z,2266.67
2022-10-16T09:57:07.318Z,2266.67
2022-10-16T09:59:35.805Z,2266.67
2022-10-16T10:02:12.823Z,2266.67
2022-10-16T10:04:46.649Z,2266.67
2022-10-16T10:07:20.751Z,2266.67
2022-10-16T10:09:50.458Z,2266.67
2022-10-16T10:12:24.558Z,2266.67
2022-10-16T10:14:58.359Z,2266.67
2022-10-16T10:17:27.627Z,2266.67
2022-10-16T10:19:57.732Z,2266.67
2022-10-16T10:22:41.845Z,2266.67
2022-10-16T10:25:21.481Z,2266.67
2022-10-16T10:28:02.545Z,2266.67
2022-10-16T10:30:40.431Z,2266.67
2022-10-16T10:33:19.667Z,2266.67
2022-10-16T10:35:58.386Z,2266.67
2022-10-16T10:38:35.979Z,2266.67
2022-10-16T10:41:21.959Z,2266.67
2022-10-16T10:44:01.633Z,2266.67
2022-10-16T10:46:36.371Z,2266.67
2022-10-16T10:49:33.264Z,2266.67
2022-10-16T10:52:32.285Z,2266.67
2022-10-16T10:55:08.735Z,2266.67
2022-10-16T10:57:48.492Z,2266.67
2022-10-16T11:00:25.319Z,2266.67
2022-10-16T11:03:02.253Z,2266.67
2022-10-16T11:05:41.094Z,2266.67
2022-10-16T11:08:15.710Z,2266.67
2022-10-16T11:10:52.689Z,2266.67
2022-10-16T11:13:35.065Z,2266.67
2022-10-16T11:16:16.312Z,2266.67
2022-10-16T11:18:54.012Z,2266.67
2022-10-16T11:21:28.833Z,2266.67
2022-10-16T11:24:03.882Z,2266.67
2022-10-16T11:26:36.712Z,2266.67
2022-10-16T11:29:12.915Z,2266.67
2022-10-16T11:31:45.321Z,2266.67
2022-10-16T11:34:19.797Z,2266.67
2022-10-16T11:36:54.812Z,2266.67
2022-10-16T11:39:28.150Z,2266.67
2022-10-16T11:42:01.254Z,2266.67
2022-10-16T11:44:40.935Z,2266.67
2022-10-16T11:47:57.506Z,2266.67
2022-10-16T11:50:26.919Z,2266.67
2022-10-16T11:53:00.147Z,2266.67
2022-10-16T11:55:35.067Z,2266.67
2022-10-16T11:58:08.243Z,2266.67
2022-10-16T12:00:42.894Z,2266.67
2022-10-16T12:03:19.702Z,2266.67
2022-10-16T12:06:07.943Z,2266.67
2022-10-16T12:08:37.211Z,2266.67
2022-10-16T12:11:10.908Z,2266.67
2022-10-16T12:13:41.400Z,2266.67
2022-10-16T12:16:23.663Z,2266.67
2022-10-16T12:19:04.753Z,2266.67
2022-10-16T12:21:33.598Z,2266.67
2022-10-16T12:24:05.689Z,2266.67
2022-10-16T12:26:37.047Z,2266.67
2022-10-16T12:29:16.574Z,2266.67
2022-10-16T12:31:57.448Z,2266.67
2022-10-16T12:34:31.698Z,2266.67
2022-10-16T12:37:12.407Z,2266.67
2022-10-16T12:39:41.058Z,2266.67
2022-10-16T12:42:24.558Z,2266.67
2022-10-16T12:44:53.171Z,2266.67
2022-10-16T12:47:25.879Z,2266.67
2022-10-16T12:49:55.487Z,2266.67
2022-10-16T12:52:30.470Z,2266.67
2022-10-16T12:55:01.791Z,2266.67
2022-10-16T12:57:43.332Z,2266.67
2022-10-16T13:00:20.830Z,2266.67
2022-10-16T13:03:12.601Z,2266.67
2022-10-16T13:05:55.024Z,2266.67
2022-10-16T13:08:40.769Z,2266.67
2022-10-16T13:11:18.037Z,2266.67
2022-10-16T13:14:17.307Z,2266.67
2022-10-16T13:16:57.038Z,2266.67
2022-10-16T13:19:32.570Z,2266.67
2022-10-16T13:22:07.173Z,2266.67
2022-10-16T13:24:56.282Z,2266.67
2022-10-16T13:27:35.849Z,2266.67
2022-10-16T13:30:14.112Z,2266.67
2022-10-16T13:32:45.596Z,2266.67
2022-10-16T13:35:27.368Z,2266.67
2022-10-16T13:38:06.580Z,2266.67
2022-10-16T13:40:35.680Z,2266.67
2022-10-16T13:43:04.022Z,2266.67
2022-10-16T13:45:32.240Z,2266.67
2022-10-16T13:48:04.521Z,2266.67
2022-10-16T13:50:34.360Z,2266.67
2022-10-16T13:53:06.884Z,2266.67
2022-10-16T13:55:35.426Z,2266.67
2022-10-16T13:58:09.401Z,2266.67
2022-10-16T14:03:09.188Z,2266.67
2022-10-16T14:05:44.785Z,2266.67
2022-10-16T14:08:16.632Z,2266.67
2022-10-16T14:10:45.044Z,2266.67
2022-10-16T14:13:19.376Z,2266.67
2022-10-16T14:15:51.511Z,2266.67
2022-10-16T14:18:23.588Z,2266.67
2022-10-16T14:20:53.382Z,2266.67
2022-10-16T14:23:27.277Z,2266.67
2022-10-16T14:25:55.429Z,2266.67
2022-10-16T14:28:25.349Z,2266.67
2022-10-16T14:30:55.492Z,2266.67
2022-10-16T14:33:25.781Z,2266.67
2022-10-16T14:36:06.146Z,2266.67
2022-10-16T14:38:55.814Z,2266.67
2022-10-16T14:41:25.175Z,2266.67
2022-10-16T14:43:56.220Z,2266.67
2022-10-16T14:46:31.015Z,2266.67
2022-10-16T14:49:04.602Z,2266.67
2022-10-16T14:51:34.182Z,2266.67
2022-10-16T14:54:02.741Z,2266.67
2022-10-16T14:56:34.597Z,2266.67
2022-10-16T14:59:04.067Z,2266.67
2022-10-16T15:01:32.222Z,2266.67
2022-10-16T15:04:00.531Z,2266.67
2022-10-16T15:06:28.769Z,2266.67
2022-10-16T15:08:58.233Z,2266.67
2022-10-16T15:11:26.457Z,2266.67
2022-10-16T15:13:54.639Z,2266.67
2022-10-16T15:16:22.913Z,2266.67
2022-10-16T15:18:51.237Z,2266.67
2022-10-16T15:21:26.362Z,2266.67
2022-10-16T15:23:54.896Z,2266.67
2022-10-16T15:26:24.635Z,2266.67
2022-10-16T15:28:53.140Z,2266.67
2022-10-16T15:31:22.393Z,2266.67
2022-10-16T15:33:54.554Z,2266.67
2022-10-16T15:36:31.060Z,2266.67
2022-10-16T15:38:59.531Z,2266.67
2022-10-16T15:41:29.278Z,2266.67
2022-10-16T15:43:57.419Z,2266.67
2022-10-16T15:46:27.391Z,2266.67
2022-10-16T15:48:59.222Z,2266.67
2022-10-16T15:51:30.230Z,2266.67
2022-10-16T15:53:58.924Z,2266.67
2022-10-16T15:56:27.457Z,2266.67
2022-10-16T15:58:58.178Z,2266.67
2022-10-16T16:01:26.426Z,2266.67
2022-10-16T16:03:55.477Z,2266.67
2022-10-16T16:06:24.896Z,2266.67
2022-10-16T16:08:53.455Z,2266.67
2022-10-16T16:11:24.190Z,2266.67
2022-10-16T16:13:52.454Z,2266.67
2022-10-16T16:16:22.089Z,2266.67
2022-10-16T16:18:50.964Z,2266.67
2022-10-16T16:21:19.101Z,2266.67
2022-10-16T16:23:47.316Z,2266.67
2022-10-16T16:26:17.645Z,2266.67
2022-10-16T16:28:45.957Z,2266.67
2022-10-16T16:31:14.274Z,2266.67
2022-10-16T16:33:43.839Z,2266.67
2022-10-16T16:36:16.654Z,2266.67
2022-10-16T16:38:44.916Z,2266.67
2022-10-16T16:41:14.450Z,2266.67
2022-10-16T16:43:42.755Z,2266.67
2022-10-16T16:46:11.284Z,2266.67
2022-10-16T16:48:39.971Z,2266.67
2022-10-16T16:51:12.738Z,2266.67
2022-10-16T16:53:40.920Z,2266.67
2022-10-16T16:56:09.947Z,2266.67
2022-10-16T16:58:38.483Z,2266.67
2022-10-16T17:01:19.376Z,2266.67
2022-10-16T17:03:50.967Z,2266.67
2022-10-16T17:06:22.267Z,2266.67
2022-10-16T17:08:51.336Z,2266.67
2022-10-16T17:11:22.226Z,2266.67
2022-10-16T17:13:55.530Z,2266.67
2022-10-16T17:16:27.076Z,2266.67
2022-10-16T17:18:55.650Z,2266.67
2022-10-16T17:21:26.833Z,2266.67
2022-10-16T17:23:55.010Z,2266.67
2022-10-16T17:26:23.209Z,2266.67
2022-10-16T17:28:53.703Z,2266.67
2022-10-16T17:31:23.798Z,2266.67
2022-10-16T17:33:52.676Z,2266.67
2022-10-16T17:36:21.865Z,2266.67
2022-10-16T17:38:51.514Z,2266.67
2022-10-16T17:41:21.966Z,2266.67
2022-10-16T17:43:51.371Z,2266.67
2022-10-16T17:46:22.472Z,2266.67
2022-10-16T17:48:54.361Z,2266.67
2022-10-16T17:51:24.275Z,2266.67
2022-10-16T17:53:56.082Z,2266.67
2022-10-16T17:56:25.249Z,2266.67
2022-10-16T17:58:56.032Z,2266.67
2022-10-16T18:01:26.811Z,2266.67
2022-10-16T18:03:57.716Z,2266.67
2022-10-16T18:06:26.791Z,2266.67
2022-10-16T18:08:58.643Z,2266.67
2022-10-16T18:11:28.300Z,2266.67
2022-10-16T18:13:58.991Z,2266.67
2022-10-16T18:16:29.842Z,2266.67
2022-10-16T18:18:58.968Z,2266.67
2022-10-16T18:21:28.462Z,1907.00
2022-10-16T18:24:00.102Z,1992.70
2022-10-16T18:26:28.894Z,2017.30
2022-10-16T18:28:58.910Z,1248.57
2022-10-16T18:31:27.684Z,1330.57
2022-10-16T18:33:56.341Z,1736.97
2022-10-16T18:36:26.716Z,1647.00
2022-10-16T18:38:55.079Z,1593.03
2022-10-16T18:41:25.293Z,1505.73
2022-10-16T18:43:53.849Z,1723.20
2022-10-16T18:46:23.918Z,1974.63
2022-10-16T18:48:56.275Z,2037.83
2022-10-16T18:51:28.290Z,1991.80
2022-10-16T18:53:58.437Z,2200.00
2022-10-16T18:56:30.325Z,2257.40
2022-10-16T18:59:00.875Z,2266.67
2022-10-16T19:01:30.818Z,2266.67
2022-10-16T19:04:01.137Z,2266.67
2022-10-16T19:06:34.339Z,2236.57
2022-10-16T19:09:02.733Z,2167.20
2022-10-16T19:11:39.245Z,2119.80
2022-10-16T19:14:10.091Z,2065.33
2022-10-16T19:16:38.923Z,2243.90
2022-10-16T19:19:09.013Z,2266.67
2022-10-16T19:21:39.909Z,2266.67
2022-10-16T19:24:09.741Z,2266.67
2022-10-16T19:26:41.220Z,2231.97
2022-10-16T19:29:11.715Z,2208.13
2022-10-16T19:31:40.406Z,2219.17
2022-10-16T19:34:09.791Z,2162.90
2022-10-16T19:36:39.354Z,2258.33
2022-10-16T19:39:09.765Z,2263.63
2022-10-16T19:41:39.542Z,1849.57
2022-10-16T19:44:09.794Z,1861.73
2022-10-16T19:46:38.640Z,1764.60
2022-10-16T19:49:09.284Z,1777.77
2022-10-16T19:51:38.299Z,1807.53
2022-10-16T19:54:09.569Z,1747.60
2022-10-16T19:56:39.539Z,1813.60
2022-10-16T19:59:09.586Z,1906.67
2022-10-16T20:01:37.829Z,1898.60
2022-10-16T20:04:06.674Z,1878.07
2022-10-16T20:06:35.019Z,2074.00
2022-10-16T20:09:03.381Z,1957.97
2022-10-16T20:11:33.302Z,2266.67
2022-10-16T20:14:03.966Z,2266.67
2022-10-16T20:16:33.077Z,2266.67
2022-10-16T20:19:02.098Z,2266.67
2022-10-16T20:21:32.519Z,2266.67
2022-10-16T20:24:01.777Z,2266.67
2022-10-16T20:26:29.874Z,2266.67
2022-10-16T20:28:58.161Z,2266.67
2022-10-16T20:31:29.308Z,2266.67
2022-10-16T20:33:59.214Z,2266.67
2022-10-16T20:36:30.518Z,2266.67
2022-10-16T20:38:58.862Z,2246.17
2022-10-16T20:41:27.124Z,2266.67
2022-10-16T20:43:55.742Z,2266.67
2022-10-16T20:46:26.920Z,2266.67
2022-10-16T20:49:06.036Z,2266.67
2022-10-16T20:51:40.001Z,2266.67
2022-10-16T20:54:08.480Z,2266.67
2022-10-16T20:56:37.848Z,2266.67
2022-10-16T20:59:07.137Z,2266.67
2022-10-16T21:01:36.767Z,2200.33
2022-10-16T21:04:09.472Z,2211.60
2022-10-16T21:06:40.513Z,2204.27
2022-10-16T21:09:09.293Z,2256.33
2022-10-16T21:11:38.557Z,2107.60
2022-10-16T21:14:09.256Z,2223.13
2022-10-16T21:16:38.189Z,2257.57
2022-10-16T21:19:07.876Z,2152.27
2022-10-16T21:21:38.902Z,2243.47
2022-10-16T21:24:12.091Z,2207.93
2022-10-16T21:26:43.636Z,2207.00
2022-10-16T21:29:12.218Z,2252.70
2022-10-16T21:31:40.563Z,2261.13
2022-10-16T21:34:10.110Z,2185.67
2022-10-16T21:36:40.703Z,2181.40
2022-10-16T21:39:11.453Z,2183.43
2022-10-16T21:41:40.377Z,2053.37
2022-10-16T21:44:09.318Z,2115.10
2022-10-16T21:46:41.129Z,2014.23
2022-10-16T21:49:12.976Z,2041.07
2022-10-16T21:51:42.927Z,2013.60
2022-10-16T21:54:14.298Z,1917.93
2022-10-16T21:56:42.476Z,1977.47
2022-10-16T21:59:12.425Z,1952.60
2022-10-16T22:01:41.649Z,1941.20
2022-10-16T22:04:12.536Z,1950.10
2022-10-16T22:06:41.102Z,1896.03
2022-10-16T22:09:12.604Z,1960.83
2022-10-16T22:11:42.826Z,1952.63
2022-10-16T22:14:13.808Z,1948.37
2022-10-16T22:16:42.743Z,1842.83
2022-10-16T22:19:13.252Z,1922.87
2022-10-16T22:21:42.789Z,1938.80
2022-10-16T22:24:11.480Z,1861.57
2022-10-16T22:26:40.305Z,1930.17
2022-10-16T22:29:09.378Z,1856.03
2022-10-16T22:31:37.640Z,1882.33
2022-10-16T22:34:06.462Z,1683.83
2022-10-16T22:36:36.491Z,1763.80
2022-10-16T22:39:05.590Z,1804.17
2022-10-16T22:41:33.794Z,1782.83
2022-10-16T22:44:01.991Z,1825.17
2022-10-16T22:46:32.185Z,1708.23
2022-10-16T22:49:00.431Z,1788.47
2022-10-16T22:51:28.891Z,1808.87
2022-10-16T22:53:59.423Z,1772.50
2022-10-16T22:56:28.338Z,1766.80
2022-10-16T22:58:56.674Z,1801.70
2022-10-16T23:01:28.279Z,1781.80
2022-10-16T23:03:57.195Z,1781.37
2022-10-16T23:06:25.544Z,1606.27
2022-10-16T23:08:54.396Z,1669.00
2022-10-16T23:11:24.298Z,1731.63
2022-10-16T23:13:53.330Z,1711.87
2022-10-16T23:16:23.734Z,1654.40
2022-10-16T23:18:52.575Z,1570.37
2022-10-16T23:21:23.474Z,1564.70
2022-10-16T23:23:53.087Z,1199.40
2022-10-16T23:26:24.840Z,1098.60
2022-10-16T23:28:53.661Z,1119.13
2022-10-16T23:31:21.930Z,1176.20
2022-10-16T23:33:50.150Z,1301.47
2022-10-16T23:36:20.004Z,1149.53
2022-10-16T23:38:49.191Z,1182.10
2022-10-16T23:41:19.090Z,1258.20
2022-10-16T23:43:49.076Z,1268.17
2022-10-16T23:46:18.337Z,1306.70
2022-10-16T23:48:46.581Z,1302.93
2022-10-16T23:51:14.769Z,1377.53
2022-10-16T23:53:43.263Z,1357.03
2022-10-16T23:56:11.478Z,1299.93
2022-10-16T23:58:39.908Z,1297.03
